createdAt,value
2018-08-16T00:02:25.493Z,89.43
2018-08-16T00:04:54.508Z,89.69
2018-08-16T00:07:23.111Z,90.16
2018-08-16T00:09:51.748Z,89.29
2018-08-16T00:12:20.649Z,89.59
2018-08-16T00:14:49.247Z,89.72
2018-08-16T00:17:17.876Z,90.32
2018-08-16T00:19:46.484Z,90.62
2018-08-16T00:22:15.072Z,90.27
2018-08-16T00:24:43.705Z,90.83
2018-08-16T00:27:12.650Z,90.90
2018-08-16T00:29:41.232Z,91.17
2018-08-16T00:32:09.820Z,91.02
2018-08-16T00:34:38.421Z,91.22
2018-08-16T00:37:07.107Z,90.73
2018-08-16T00:39:35.725Z,90.46
2018-08-16T00:42:04.344Z,91.31
2018-08-16T00:44:32.942Z,91.10
2018-08-16T00:47:01.525Z,91.26
2018-08-16T00:49:30.459Z,90.85
2018-08-16T00:51:59.041Z,91.31
2018-08-16T00:54:27.907Z,91.23
2018-08-16T00:56:56.521Z,91.43
2018-08-16T00:59:25.167Z,91.43
2018-08-16T01:01:53.788Z,91.48
2018-08-16T01:04:22.382Z,90.54
2018-08-16T01:06:50.958Z,87.98
2018-08-16T01:09:19.566Z,86.78
2018-08-16T01:11:48.189Z,87.16
2018-08-16T01:14:17.106Z,87.54
2018-08-16T01:16:45.717Z,88.08
2018-08-16T01:19:14.716Z,88.60
2018-08-16T01:21:43.336Z,88.16
2018-08-16T01:24:11.941Z,88.76
2018-08-16T01:26:40.607Z,89.73
2018-08-16T01:29:09.228Z,89.60
2018-08-16T01:31:37.816Z,90.05
2018-08-16T01:34:06.773Z,90.23
2018-08-16T01:36:35.400Z,90.28
2018-08-16T01:39:04.753Z,91.17
2018-08-16T01:41:33.361Z,90.72
2018-08-16T01:44:01.933Z,91.24
2018-08-16T01:46:30.674Z,90.75
2018-08-16T01:48:59.280Z,91.38
2018-08-16T01:51:27.989Z,92.37
2018-08-16T01:53:56.591Z,91.89
2018-08-16T01:56:25.181Z,92.32
2018-08-16T01:58:53.765Z,92.15
2018-08-16T02:01:22.448Z,91.48
2018-08-16T02:03:51.092Z,92.29
2018-08-16T02:06:19.730Z,92.01
2018-08-16T02:08:48.324Z,91.98
2018-08-16T02:11:16.912Z,92.69
2018-08-16T02:13:45.503Z,92.29
2018-08-16T02:16:14.132Z,92.14
2018-08-16T02:18:42.740Z,92.49
2018-08-16T02:21:11.365Z,93.02
2018-08-16T02:23:39.952Z,92.58
2018-08-16T02:26:08.534Z,91.84
2018-08-16T02:28:37.195Z,91.86
2018-08-16T02:31:05.790Z,91.19
2018-08-16T02:33:34.401Z,90.24
2018-08-16T02:36:03.197Z,91.36
2018-08-16T02:38:31.793Z,91.19
2018-08-16T02:41:00.441Z,90.90
2018-08-16T02:43:29.082Z,91.34
2018-08-16T02:45:58.492Z,90.58
2018-08-16T02:48:27.089Z,90.97
2018-08-16T02:50:55.785Z,91.68
2018-08-16T02:53:24.506Z,91.60
2018-08-16T02:55:53.109Z,92.41
2018-08-16T02:58:21.725Z,91.95
2018-08-16T03:00:50.344Z,92.83
2018-08-16T03:03:18.940Z,93.24
2018-08-16T03:05:47.611Z,93.21
2018-08-16T03:08:16.209Z,92.91
2018-08-16T03:10:44.791Z,92.68
2018-08-16T03:13:13.732Z,93.39
2018-08-16T03:15:42.417Z,92.99
2018-08-16T03:18:11.198Z,93.23
2018-08-16T03:20:39.777Z,92.65
2018-08-16T03:23:08.641Z,92.90
2018-08-16T03:25:37.264Z,92.85
2018-08-16T03:28:06.006Z,92.18
2018-08-16T03:30:34.668Z,92.80
2018-08-16T03:33:03.312Z,92.71
2018-08-16T03:35:31.896Z,92.30
2018-08-16T03:38:00.505Z,92.81
2018-08-16T03:40:29.284Z,91.84
2018-08-16T03:42:57.908Z,92.58
2018-08-16T03:45:26.550Z,92.93
2018-08-16T03:47:55.156Z,93.31
2018-08-16T03:50:23.764Z,93.07
2018-08-16T03:52:52.378Z,92.76
2018-08-16T03:55:21.017Z,93.48
2018-08-16T03:57:49.656Z,92.88
2018-08-16T04:00:18.264Z,93.16
2018-08-16T04:02:46.980Z,93.04
2018-08-16T04:05:15.600Z,92.55
2018-08-16T04:07:44.224Z,91.42
2018-08-16T04:10:12.833Z,91.80
2018-08-16T04:12:41.418Z,91.50
2018-08-16T04:15:10.021Z,90.42
2018-08-16T04:17:38.585Z,89.86
2018-08-16T04:20:08.020Z,90.21
2018-08-16T04:22:36.714Z,89.98
2018-08-16T04:25:05.770Z,88.94
2018-08-16T04:27:34.399Z,89.03
2018-08-16T04:30:02.988Z,88.75
2018-08-16T04:32:31.685Z,88.80
2018-08-16T04:35:00.369Z,88.30
2018-08-16T04:37:29.190Z,87.98
2018-08-16T04:39:57.809Z,87.29
2018-08-16T04:42:26.396Z,86.41
2018-08-16T04:44:55.015Z,85.69
2018-08-16T04:47:23.620Z,85.02
2018-08-16T04:49:52.212Z,84.00
2018-08-16T04:52:20.857Z,83.49
2018-08-16T04:54:49.444Z,83.04
2018-08-16T04:57:18.093Z,82.67
2018-08-16T04:59:46.697Z,82.20
2018-08-16T05:02:15.383Z,81.01
2018-08-16T05:04:45.625Z,79.49
2018-08-16T05:07:14.231Z,78.37
2018-08-16T05:09:42.868Z,76.85
2018-08-16T05:12:11.516Z,75.46
2018-08-16T05:14:40.375Z,74.78
2018-08-16T05:17:09.084Z,74.19
2018-08-16T05:19:37.700Z,73.30
2018-08-16T05:22:06.419Z,72.36
2018-08-16T05:24:35.048Z,71.70
2018-08-16T05:27:03.625Z,72.05
2018-08-16T05:29:32.206Z,71.07
2018-08-16T05:32:00.821Z,70.11
2018-08-16T05:34:29.828Z,68.92
2018-08-16T05:36:58.451Z,66.54
2018-08-16T05:39:27.052Z,64.25
2018-08-16T05:41:56.213Z,60.04
2018-08-16T05:44:25.429Z,56.53
2018-08-16T05:46:54.707Z,52.53
2018-08-16T05:49:23.897Z,48.09
2018-08-16T05:51:53.079Z,44.31
2018-08-16T05:54:22.266Z,42.36
2018-08-16T05:56:51.458Z,39.60
2018-08-16T05:59:20.743Z,36.94
2018-08-16T06:01:50.066Z,36.09
2018-08-16T06:04:19.388Z,35.22
2018-08-16T06:06:48.625Z,32.87
2018-08-16T06:09:17.834Z,31.86
2018-08-16T06:11:47.240Z,30.13
2018-08-16T06:14:16.441Z,29.33
2018-08-16T06:16:45.398Z,28.35
2018-08-16T06:19:14.321Z,27.39
2018-08-16T06:21:43.241Z,26.13
2018-08-16T06:24:12.173Z,27.13
2018-08-16T06:26:41.097Z,27.58
2018-08-16T06:29:10.325Z,28.02
2018-08-16T06:31:39.236Z,29.24
2018-08-16T06:34:08.623Z,30.34
2018-08-16T06:36:37.870Z,30.08
2018-08-16T06:39:09.766Z,31.42
2018-08-16T06:41:39.341Z,32.61
2018-08-16T06:44:08.789Z,34.29
2018-08-16T06:46:38.013Z,36.40
2018-08-16T06:49:08.092Z,34.99
2018-08-16T06:51:37.637Z,32.15
2018-08-16T06:54:06.871Z,30.87
2018-08-16T06:56:36.128Z,29.25
2018-08-16T06:59:05.431Z,28.52
2018-08-16T07:01:34.331Z,28.35
2018-08-16T07:04:03.555Z,26.84
2018-08-16T07:06:32.457Z,27.01
2018-08-16T07:09:01.386Z,26.35
2018-08-16T07:11:30.501Z,25.82
2018-08-16T07:13:59.467Z,24.97
2018-08-16T07:16:28.452Z,24.58
2018-08-16T07:18:57.645Z,23.86
2018-08-16T07:21:26.594Z,23.41
2018-08-16T07:23:55.530Z,22.37
2018-08-16T07:26:24.458Z,21.66
2018-08-16T07:28:53.387Z,22.95
2018-08-16T07:31:22.323Z,22.77
2018-08-16T07:33:51.363Z,21.69
2018-08-16T07:36:20.337Z,22.22
2018-08-16T07:38:49.344Z,20.66
2018-08-16T07:41:18.317Z,20.24
2018-08-16T07:43:47.233Z,20.69
2018-08-16T07:46:16.248Z,21.15
2018-08-16T07:48:45.274Z,21.05
2018-08-16T07:51:14.596Z,20.51
2018-08-16T07:53:43.473Z,19.76
2018-08-16T07:56:13.605Z,19.14
2018-08-16T07:58:42.534Z,19.53
2018-08-16T08:01:11.471Z,20.44
2018-08-16T08:03:40.413Z,19.55
2018-08-16T08:06:09.357Z,19.68
2018-08-16T08:08:38.301Z,18.76
2018-08-16T08:11:07.182Z,19.64
2018-08-16T08:13:36.502Z,19.06
2018-08-16T08:16:05.469Z,18.17
2018-08-16T08:18:34.391Z,18.33
2018-08-16T08:21:03.327Z,18.30
2018-08-16T08:23:32.214Z,18.05
2018-08-16T08:26:01.192Z,18.47
2018-08-16T08:28:30.529Z,18.27
2018-08-16T08:30:59.424Z,17.88
2018-08-16T08:33:28.362Z,17.42
2018-08-16T08:36:08.772Z,18.29
2018-08-16T08:38:37.728Z,17.19
2018-08-16T08:41:06.854Z,17.18
2018-08-16T08:43:47.201Z,17.71
2018-08-16T08:46:16.577Z,18.02
2018-08-16T08:48:45.471Z,18.10
2018-08-16T08:51:14.373Z,18.43
2018-08-16T08:54:53.588Z,17.22
2018-08-16T08:57:34.572Z,18.52
2018-08-16T09:00:03.542Z,18.56
2018-08-16T09:02:32.443Z,18.50
2018-08-16T09:05:01.755Z,20.06
2018-08-16T09:07:30.923Z,20.76
2018-08-16T09:11:18.077Z,19.98
2018-08-16T09:14:00.584Z,22.15
2018-08-16T09:16:32.351Z,23.50
2018-08-16T09:19:02.456Z,24.59
2018-08-16T09:21:36.800Z,27.44
2018-08-16T09:24:06.196Z,28.49
2018-08-16T09:26:43.704Z,29.37
2018-08-16T09:29:37.365Z,30.13
2018-08-16T09:32:17.840Z,31.55
2018-08-16T09:34:47.033Z,31.56
2018-08-16T09:37:20.429Z,30.46
2018-08-16T09:39:49.755Z,31.90
2018-08-16T09:42:19.429Z,30.32
2018-08-16T09:44:53.225Z,30.67
2018-08-16T09:48:34.520Z,30.93
2018-08-16T09:51:03.829Z,30.98
2018-08-16T09:53:33.374Z,31.64
2018-08-16T09:56:02.705Z,31.52
2018-08-16T09:58:32.457Z,33.33
2018-08-16T10:01:06.946Z,32.60
2018-08-16T10:03:36.184Z,33.53
2018-08-16T10:06:06.179Z,33.62
2018-08-16T10:08:35.380Z,32.47
2018-08-16T10:11:04.665Z,34.10
2018-08-16T10:13:33.922Z,33.68
2018-08-16T10:16:03.318Z,33.90
2018-08-16T10:18:32.534Z,33.32
2018-08-16T10:21:02.007Z,31.95
2018-08-16T10:23:31.680Z,32.06
2018-08-16T10:26:00.861Z,30.56
2018-08-16T10:28:30.345Z,30.95
2018-08-16T10:30:59.557Z,30.02
2018-08-16T10:33:28.787Z,30.45
2018-08-16T10:35:58.379Z,31.18
2018-08-16T10:38:27.569Z,30.78
2018-08-16T10:40:56.745Z,31.45
2018-08-16T10:43:26.280Z,31.94
2018-08-16T10:45:55.472Z,32.59
2018-08-16T10:48:25.048Z,33.06
2018-08-16T10:50:54.276Z,32.42
2018-08-16T10:53:24.428Z,32.81
2018-08-16T10:55:53.758Z,32.51
2018-08-16T10:58:23.055Z,32.86
2018-08-16T11:00:52.337Z,33.72
2018-08-16T11:03:22.507Z,35.16
2018-08-16T11:05:51.900Z,34.59
2018-08-16T11:08:21.141Z,34.60
2018-08-16T11:10:50.437Z,34.68
2018-08-16T11:13:19.618Z,34.94
2018-08-16T11:15:48.788Z,33.97
2018-08-16T11:18:18.307Z,32.81
2018-08-16T11:20:47.725Z,34.29
2018-08-16T11:23:17.042Z,33.30
2018-08-16T11:25:46.241Z,33.33
2018-08-16T11:28:15.756Z,33.04
2018-08-16T11:30:44.989Z,33.11
2018-08-16T11:33:14.229Z,32.31
2018-08-16T11:35:43.420Z,32.05
2018-08-16T11:38:12.629Z,30.79
2018-08-16T11:40:41.872Z,31.05
2018-08-16T11:43:11.208Z,32.01
2018-08-16T11:45:40.444Z,31.20
2018-08-16T11:48:09.617Z,30.26
2018-08-16T11:50:38.892Z,30.19
2018-08-16T11:53:08.196Z,31.47
2018-08-16T11:55:37.396Z,33.61
2018-08-16T11:58:07.177Z,31.56
2018-08-16T12:00:36.802Z,32.14
2018-08-16T12:03:06.755Z,31.52
2018-08-16T12:05:36.057Z,31.19
2018-08-16T12:08:05.276Z,31.27
2018-08-16T12:10:34.496Z,32.54
2018-08-16T12:13:03.786Z,32.19
2018-08-16T12:15:33.118Z,31.50
2018-08-16T12:18:02.404Z,30.77
2018-08-16T12:20:31.925Z,30.34
2018-08-16T12:23:01.215Z,30.18
2018-08-16T12:25:33.396Z,30.27
2018-08-16T12:28:02.620Z,30.93
2018-08-16T12:30:32.011Z,30.82
2018-08-16T12:33:01.257Z,30.78
2018-08-16T12:35:30.715Z,30.52
2018-08-16T12:37:59.939Z,30.77
2018-08-16T12:40:29.244Z,31.07
2018-08-16T12:42:58.588Z,30.63
2018-08-16T12:45:27.830Z,29.18
2018-08-16T12:47:57.037Z,29.26
2018-08-16T12:50:26.237Z,29.17
2018-08-16T12:52:55.545Z,29.29
2018-08-16T12:55:24.773Z,29.30
2018-08-16T12:57:54.084Z,30.42
2018-08-16T13:00:23.294Z,31.30
2018-08-16T13:02:52.470Z,30.44
2018-08-16T13:05:21.719Z,31.12
2018-08-16T13:07:51.244Z,32.71
2018-08-16T13:10:21.892Z,32.02
2018-08-16T13:12:53.539Z,33.04
2018-08-16T13:15:22.860Z,32.80
2018-08-16T13:17:52.096Z,32.06
2018-08-16T13:20:21.320Z,32.45
2018-08-16T13:22:50.512Z,32.25
2018-08-16T13:25:20.383Z,31.70
2018-08-16T13:27:49.661Z,31.64
2018-08-16T13:30:18.945Z,32.49
2018-08-16T13:32:48.182Z,31.49
2018-08-16T13:35:17.447Z,32.62
2018-08-16T13:37:46.633Z,31.43
2018-08-16T13:40:15.826Z,32.80
2018-08-16T13:42:45.126Z,32.48
2018-08-16T13:45:14.347Z,33.68
2018-08-16T13:47:43.542Z,32.89
2018-08-16T13:50:12.767Z,32.42
2018-08-16T13:52:42.098Z,34.22
2018-08-16T13:55:12.193Z,33.77
2018-08-16T13:57:41.874Z,32.24
2018-08-16T14:00:11.145Z,32.59
2018-08-16T14:02:40.761Z,32.67
2018-08-16T14:05:10.271Z,33.89
2018-08-16T14:07:39.565Z,34.08
2018-08-16T14:10:09.192Z,33.47
2018-08-16T14:12:38.448Z,34.11
2018-08-16T14:15:08.473Z,34.38
2018-08-16T14:17:37.757Z,33.62
2018-08-16T14:20:07.715Z,33.80
2018-08-16T14:22:36.916Z,34.64
2018-08-16T14:25:06.620Z,33.05
2018-08-16T14:27:35.817Z,34.30
2018-08-16T14:30:06.745Z,33.53
2018-08-16T14:32:36.084Z,34.77
2018-08-16T14:35:05.555Z,35.09
2018-08-16T14:37:34.813Z,35.20
2018-08-16T14:40:04.452Z,34.14
2018-08-16T14:42:33.632Z,35.65
2018-08-16T14:45:03.313Z,34.97
2018-08-16T14:47:33.623Z,35.88
2018-08-16T14:50:02.885Z,36.58
2018-08-16T14:52:32.330Z,36.73
2018-08-16T14:55:01.593Z,36.16
2018-08-16T14:57:31.789Z,37.16
2018-08-16T15:00:01.030Z,36.69
2018-08-16T15:02:30.419Z,36.79
2018-08-16T15:04:59.659Z,36.93
2018-08-16T15:07:28.861Z,37.41
2018-08-16T15:09:58.159Z,37.18
2018-08-16T15:12:27.653Z,36.10
2018-08-16T15:14:57.006Z,37.17
2018-08-16T15:17:26.196Z,36.76
2018-08-16T15:19:55.464Z,37.56
2018-08-16T15:22:24.674Z,38.81
2018-08-16T15:24:53.953Z,38.11
2018-08-16T15:27:23.172Z,38.79
2018-08-16T15:29:52.444Z,39.70
2018-08-16T15:32:21.813Z,39.86
2018-08-16T15:34:51.149Z,39.32
2018-08-16T15:37:20.414Z,39.05
2018-08-16T15:39:49.637Z,38.28
2018-08-16T15:42:18.917Z,39.33
2018-08-16T15:44:48.095Z,39.40
2018-08-16T15:47:17.304Z,37.69
2018-08-16T15:49:46.526Z,37.39
2018-08-16T15:52:15.713Z,36.81
2018-08-16T15:54:44.935Z,37.67
2018-08-16T15:57:14.116Z,37.53
2018-08-16T15:59:43.388Z,38.40
2018-08-16T16:02:12.561Z,39.37
2018-08-16T16:04:41.800Z,39.16
2018-08-16T16:07:11.357Z,38.44
2018-08-16T16:09:40.553Z,39.65
2018-08-16T16:12:09.742Z,39.84
2018-08-16T16:14:38.904Z,39.61
2018-08-16T16:17:08.095Z,40.28
2018-08-16T16:19:37.373Z,40.49
2018-08-16T16:22:06.549Z,39.88
2018-08-16T16:24:35.740Z,39.87
2018-08-16T16:27:05.085Z,39.94
2018-08-16T16:29:34.251Z,41.08
2018-08-16T16:32:03.751Z,40.31
2018-08-16T16:34:32.945Z,40.48
2018-08-16T16:37:02.209Z,41.35
2018-08-16T16:39:31.719Z,40.45
2018-08-16T16:42:01.265Z,40.69
2018-08-16T16:44:30.821Z,41.39
2018-08-16T16:47:00.276Z,42.32
2018-08-16T16:49:30.101Z,41.55
2018-08-16T16:51:59.601Z,42.11
2018-08-16T16:54:29.216Z,41.53
2018-08-16T16:56:58.884Z,41.75
2018-08-16T16:59:28.547Z,42.80
2018-08-16T17:01:58.128Z,42.16
2018-08-16T17:04:27.329Z,43.47
2018-08-16T17:06:57.250Z,42.82
2018-08-16T17:09:26.468Z,44.10
2018-08-16T17:11:55.643Z,44.44
2018-08-16T17:14:24.839Z,45.17
2018-08-16T17:16:54.180Z,45.00
2018-08-16T17:19:23.348Z,44.97
2018-08-16T17:21:52.568Z,45.70
2018-08-16T17:24:21.748Z,46.96
2018-08-16T17:26:50.955Z,47.04
2018-08-16T17:29:20.126Z,47.21
2018-08-16T17:31:49.324Z,46.58
2018-08-16T17:34:20.638Z,46.60
2018-08-16T17:36:49.870Z,47.50
2018-08-16T17:39:19.256Z,48.39
2018-08-16T17:41:48.425Z,48.38
2018-08-16T17:44:17.616Z,49.18
2018-08-16T17:46:46.902Z,48.75
2018-08-16T17:49:16.453Z,48.70
2018-08-16T17:51:46.004Z,49.52
2018-08-16T17:54:15.168Z,48.78
2018-08-16T17:56:44.715Z,49.57
2018-08-16T17:59:13.952Z,49.49
2018-08-16T18:01:43.557Z,49.50
2018-08-16T18:04:12.920Z,50.86
2018-08-16T18:06:48.519Z,50.44
2018-08-16T18:09:17.734Z,50.88
2018-08-16T18:11:47.252Z,51.93
2018-08-16T18:14:16.464Z,51.14
2018-08-16T18:16:45.680Z,51.44
2018-08-16T18:19:14.917Z,52.72
2018-08-16T18:21:44.448Z,53.61
2018-08-16T18:24:13.791Z,53.24
2018-08-16T18:26:43.217Z,54.16
2018-08-16T18:29:12.540Z,54.73
2018-08-16T18:31:41.793Z,55.88
2018-08-16T18:34:10.990Z,55.47
2018-08-16T18:36:40.287Z,55.67
2018-08-16T18:39:10.964Z,56.01
2018-08-16T18:41:40.437Z,56.71
2018-08-16T18:44:09.712Z,56.75
2018-08-16T18:46:39.044Z,57.63
2018-08-16T18:49:08.316Z,57.21
2018-08-16T18:51:36.910Z,57.88
2018-08-16T18:54:06.149Z,57.95
2018-08-16T18:56:34.753Z,58.11
2018-08-16T18:59:04.060Z,58.32
2018-08-16T19:01:33.128Z,59.00
2018-08-16T19:04:02.386Z,58.86
2018-08-16T19:06:32.024Z,58.77
2018-08-16T19:09:01.206Z,58.75
2018-08-16T19:11:30.412Z,58.56
2018-08-16T19:13:59.156Z,59.70
2018-08-16T19:16:27.824Z,59.23
2018-08-16T19:18:57.529Z,59.15
2018-08-16T19:21:26.128Z,59.99
2018-08-16T19:23:54.774Z,60.32
2018-08-16T19:26:23.485Z,60.38
2018-08-16T19:28:52.101Z,60.13
2018-08-16T19:31:20.981Z,60.28
2018-08-16T19:33:49.616Z,60.95
2018-08-16T19:36:18.228Z,61.43
2018-08-16T19:38:46.943Z,61.75
2018-08-16T19:41:15.584Z,62.20
2018-08-16T19:43:44.489Z,61.96
2018-08-16T19:46:13.157Z,62.19
2018-08-16T19:48:41.780Z,63.12
2018-08-16T19:51:10.500Z,62.71
2018-08-16T19:53:39.102Z,63.77
2018-08-16T19:56:07.720Z,63.70
2018-08-16T19:58:37.197Z,63.79
2018-08-16T20:01:06.157Z,64.70
2018-08-16T20:03:34.958Z,64.27
2018-08-16T20:06:03.801Z,64.63
2018-08-16T20:08:32.639Z,64.60
2018-08-16T20:11:01.278Z,64.64
2018-08-16T20:13:30.174Z,64.88
2018-08-16T20:15:58.818Z,64.91
2018-08-16T20:18:27.428Z,65.40
2018-08-16T20:20:56.060Z,65.00
2018-08-16T20:23:24.671Z,64.33
2018-08-16T20:25:53.353Z,63.98
2018-08-16T20:28:22.029Z,64.28
2018-08-16T20:30:50.681Z,63.16
2018-08-16T20:33:19.440Z,63.62
2018-08-16T20:35:48.064Z,63.08
2018-08-16T20:38:16.741Z,63.07
2018-08-16T20:40:45.417Z,63.42
2018-08-16T20:43:14.032Z,63.00
2018-08-16T20:45:42.788Z,62.82
2018-08-16T20:48:11.398Z,62.51
2018-08-16T20:50:40.025Z,62.64
2018-08-16T20:53:09.335Z,62.94
2018-08-16T20:55:38.533Z,63.29
2018-08-16T20:58:07.794Z,62.40
2018-08-16T21:00:37.107Z,62.69
2018-08-16T21:03:06.533Z,62.50
2018-08-16T21:05:35.769Z,62.65
2018-08-16T21:08:04.416Z,63.43
2018-08-16T21:10:33.118Z,62.86
2018-08-16T21:13:01.717Z,62.60
2018-08-16T21:15:30.964Z,63.84
2018-08-16T21:18:00.169Z,63.58
2018-08-16T21:20:28.907Z,63.45
2018-08-16T21:22:58.628Z,63.61
2018-08-16T21:25:27.284Z,63.23
2018-08-16T21:27:55.905Z,63.66
2018-08-16T21:30:25.170Z,62.64
2018-08-16T21:32:54.532Z,62.61
2018-08-16T21:35:23.239Z,62.71
2018-08-16T21:37:51.914Z,63.34
2018-08-16T21:40:21.836Z,62.96
2018-08-16T21:42:50.600Z,62.50
2018-08-16T21:45:19.204Z,63.13
2018-08-16T21:47:47.862Z,63.25
2018-08-16T21:50:16.476Z,63.17
2018-08-16T21:52:45.111Z,62.71
2018-08-16T21:55:13.798Z,62.75
2018-08-16T21:57:42.431Z,63.85
2018-08-16T22:00:11.749Z,63.78
2018-08-16T22:02:40.948Z,63.98
2018-08-16T22:05:09.592Z,64.17
2018-08-16T22:08:14.277Z,64.48
2018-08-16T22:10:44.097Z,64.74
2018-08-16T22:13:12.760Z,64.43
2018-08-16T22:15:41.628Z,64.97
2018-08-16T22:18:10.561Z,64.68
2018-08-16T22:20:39.322Z,64.50
2018-08-16T22:23:07.960Z,65.23
2018-08-16T22:25:36.668Z,65.43
2018-08-16T22:28:05.413Z,65.59
2018-08-16T22:30:34.036Z,65.79
2018-08-16T22:33:02.653Z,65.77
2018-08-16T22:35:31.461Z,65.71
2018-08-16T22:38:00.122Z,65.72
2018-08-16T22:40:28.796Z,65.76
2018-08-16T22:42:57.404Z,66.14
2018-08-16T22:45:26.087Z,66.22
2018-08-16T22:47:54.895Z,66.31
2018-08-16T22:50:23.544Z,66.81
2018-08-16T22:52:52.702Z,66.87
2018-08-16T22:55:21.446Z,66.51
2018-08-16T22:57:50.087Z,66.25
2018-08-16T23:00:18.761Z,66.84
2018-08-16T23:02:47.424Z,67.03
2018-08-16T23:05:16.156Z,66.93
2018-08-16T23:07:44.892Z,66.40
2018-08-16T23:10:13.873Z,66.76
2018-08-16T23:12:42.509Z,66.31
2018-08-16T23:15:11.192Z,66.50
2018-08-16T23:17:39.861Z,67.02
2018-08-16T23:20:09.272Z,67.00
2018-08-16T23:22:38.007Z,67.12
2018-08-16T23:25:08.220Z,66.52
2018-08-16T23:27:36.905Z,67.23
2018-08-16T23:30:09.813Z,66.54
2018-08-16T23:32:38.464Z,67.52
2018-08-16T23:35:07.571Z,67.22
2018-08-16T23:37:36.349Z,67.65
2018-08-16T23:40:06.620Z,67.49
2018-08-16T23:42:35.302Z,66.81
2018-08-16T23:45:04.002Z,67.61
2018-08-16T23:47:32.973Z,67.64
2018-08-16T23:50:01.668Z,67.30
2018-08-16T23:52:30.653Z,67.16
2018-08-16T23:54:59.280Z,68.03
2018-08-16T23:57:27.905Z,67.49
2018-08-16T23:59:56.526Z,67.32
